Time;durP1;ratioP1;P1;durP2;ratioP2;P2;SDS_P1;SDS_P2;PMS_P1;PMS_P2;Temp;Humidity;BMP_temperature;BMP_pressure;BME280_temperature;BME280_humidity;BME280_pressure;Samples;Min_cycle;Max_cycle;Signal;HPM_P1;HPM_P2
2021/06/20 00:01:57;;;;;;;1.60;0.30;;;17.70;78.80;;;;;;4921729;29;20127;-73
2021/06/20 00:04:24;;;;;;;0.85;0.30;;;17.20;80.00;;;;;;4924598;29;20176;-73
2021/06/20 00:06:52;;;;;;;0.47;0.10;;;16.90;81.90;;;;;;4922389;29;20079;-73
2021/06/20 00:09:20;;;;;;;0.40;0.10;;;17.40;82.60;;;;;;4923998;29;20075;-72
2021/06/20 00:11:50;;;;;;;0.73;0.25;;;18.20;80.20;;;;;;4919597;29;20076;-74
2021/06/20 00:14:18;;;;;;;0.45;0.20;;;18.90;77.90;;;;;;4923986;29;20054;-73
2021/06/20 00:16:46;;;;;;;4.20;0.30;;;19.30;76.00;;;;;;4922983;29;20499;-73
2021/06/20 00:19:13;;;;;;;3.30;0.25;;;20.00;74.90;;;;;;4926350;29;20024;-72
2021/06/20 00:21:41;;;;;;;0.85;0.32;;;20.10;74.00;;;;;;4922766;29;20035;-74
2021/06/20 00:24:09;;;;;;;2.53;0.20;;;20.20;73.40;;;;;;4922857;29;22203;-72
2021/06/20 00:26:36;;;;;;;0.30;0.20;;;19.40;74.80;;;;;;4920339;29;20047;-73
2021/06/20 00:29:05;;;;;;;3.72;0.70;;;18.60;76.80;;;;;;4922661;29;20148;-75
2021/06/20 00:31:32;;;;;;;0.35;0.20;;;18.90;76.70;;;;;;4923612;29;20027;-71
2021/06/20 00:34:00;;;;;;;1.25;0.17;;;19.00;77.10;;;;;;4905556;29;20633;-72
2021/06/20 00:36:27;;;;;;;1.20;0.45;;;19.00;76.50;;;;;;4923918;29;20548;-71
2021/06/20 00:38:55;;;;;;;0.88;0.15;;;18.60;77.10;;;;;;4924762;29;20054;-72
2021/06/20 00:41:22;;;;;;;0.73;0.20;;;18.20;77.60;;;;;;4928681;29;20033;-71
2021/06/20 00:43:50;;;;;;;0.60;0.13;;;18.00;78.70;;;;;;4926440;29;20025;-72
2021/06/20 00:46:17;;;;;;;0.40;0.30;;;18.80;78.40;;;;;;4923305;29;20024;-73
2021/06/20 00:48:45;;;;;;;3.28;0.20;;;19.30;76.90;;;;;;4924786;29;20036;-72
2021/06/20 00:51:12;;;;;;;0.93;0.30;;;19.70;76.50;;;;;;4923911;29;20430;-72
2021/06/20 00:53:39;;;;;;;0.80;0.20;;;20.10;75.40;;;;;;4923140;29;20565;-72
2021/06/20 00:56:07;;;;;;;1.25;0.20;;;19.90;75.90;;;;;;4926084;29;20497;-73
2021/06/20 00:58:35;;;;;;;0.80;0.30;;;19.80;77.00;;;;;;4903929;29;20028;-72
2021/06/20 01:01:02;;;;;;;0.30;0.20;;;19.80;76.60;;;;;;4924953;29;20059;-72
2021/06/20 01:03:29;;;;;;;2.28;0.40;;;20.00;77.50;;;;;;4922861;29;20028;-72
2021/06/20 01:05:57;;;;;;;0.47;0.13;;;20.00;76.40;;;;;;4925152;29;20036;-73
2021/06/20 01:08:25;;;;;;;1.52;0.10;;;19.50;77.00;;;;;;4922940;29;20375;-72
2021/06/20 01:10:52;;;;;;;2.22;0.28;;;19.20;78.30;;;;;;4929811;29;20562;-71
2021/06/20 01:13:20;;;;;;;1.98;0.43;;;18.90;78.90;;;;;;4924100;29;20447;-72
2021/06/20 01:15:50;;;;;;;0.95;0.22;;;18.60;78.60;;;;;;4925194;29;20050;-72
2021/06/20 01:18:19;;;;;;;2.55;0.65;;;18.30;80.70;;;;;;4923298;29;20391;-71
2021/06/20 01:20:47;;;;;;;0.20;0.15;;;18.30;80.50;;;;;;4925668;29;20024;-72
2021/06/20 01:23:14;;;;;;;3.08;0.55;;;18.40;81.10;;;;;;4925200;29;20087;-72
2021/06/20 01:25:43;;;;;;;1.95;0.40;;;18.20;81.90;;;;;;4925898;29;20062;-71
2021/06/20 01:28:12;;;;;;;0.80;0.20;;;18.00;82.70;;;;;;4926993;29;20475;-71
2021/06/20 01:30:44;;;;;;;0.43;0.10;;;17.70;82.10;;;;;;4925295;29;20031;-72
2021/06/20 01:33:14;;;;;;;0.88;0.20;;;17.40;82.90;;;;;;4924480;29;20035;-74
2021/06/20 01:35:41;;;;;;;0.98;0.20;;;17.30;83.30;;;;;;4923852;29;20031;-72
2021/06/20 01:38:10;;;;;;;1.75;0.28;;;17.10;84.80;;;;;;4925418;29;20126;-71
2021/06/20 01:40:39;;;;;;;1.60;0.22;;;17.00;83.60;;;;;;4925471;29;20387;-70
2021/06/20 01:43:07;;;;;;;2.50;0.22;;;16.80;84.30;;;;;;4928590;29;20039;-70
2021/06/20 01:45:36;;;;;;;1.35;0.60;;;16.80;84.50;;;;;;4926115;29;20039;-69
2021/06/20 01:48:05;;;;;;;4.22;0.95;;;16.90;84.80;;;;;;4924458;29;20034;-71
2021/06/20 01:50:33;;;;;;;1.23;0.40;;;17.20;84.00;;;;;;4927757;29;20032;-69
2021/06/20 01:53:13;;;;;;;4.13;0.98;;;17.50;84.70;;;;;;4925030;29;20471;-71
2021/06/20 01:55:43;;;;;;;2.50;0.30;;;17.70;83.20;;;;;;4923344;29;20050;-70
2021/06/20 01:58:13;;;;;;;0.43;0.30;;;17.70;82.60;;;;;;4925425;29;20038;-70
2021/06/20 02:00:43;;;;;;;0.73;0.20;;;17.50;82.90;;;;;;4923971;29;20036;-72
2021/06/20 02:03:17;;;;;;;2.55;0.30;;;17.30;83.80;;;;;;4926662;29;20074;-71
2021/06/20 02:05:47;;;;;;;1.25;0.75;;;17.20;84.40;;;;;;4926776;29;20498;-71
2021/06/20 02:08:18;;;;;;;3.05;0.65;;;17.10;84.30;;;;;;4928093;29;20787;-72
2021/06/20 02:10:47;;;;;;;1.25;0.30;;;16.90;86.10;;;;;;4927106;29;20041;-71
2021/06/20 02:13:15;;;;;;;2.05;0.50;;;16.70;86.80;;;;;;4925199;29;20035;-70
2021/06/20 02:15:43;;;;;;;0.82;0.30;;;16.60;88.40;;;;;;4926238;29;20494;-71
2021/06/20 02:18:11;;;;;;;1.52;0.57;;;16.40;89.60;;;;;;4925484;29;20031;-71
2021/06/20 02:20:40;;;;;;;2.58;0.45;;;16.30;89.90;;;;;;4923364;29;20081;-71
2021/06/20 02:23:07;;;;;;;0.90;0.63;;;16.30;90.30;;;;;;4926818;29;20036;-70
2021/06/20 02:25:36;;;;;;;2.83;0.20;;;16.10;90.90;;;;;;4924409;29;20024;-70
2021/06/20 02:28:04;;;;;;;1.85;0.25;;;16.10;91.30;;;;;;4924609;29;20051;-71
2021/06/20 02:30:31;;;;;;;2.67;0.50;;;16.00;91.50;;;;;;4926129;29;20040;-71
2021/06/20 02:32:58;;;;;;;4.93;0.55;;;16.00;92.50;;;;;;4923793;29;20513;-71
2021/06/20 02:35:26;;;;;;;3.42;0.68;;;15.90;93.70;;;;;;4922594;29;20055;-71
2021/06/20 02:37:54;;;;;;;3.78;1.45;;;15.70;94.30;;;;;;4925015;29;20039;-72
2021/06/20 02:40:21;;;;;;;5.13;1.02;;;15.70;94.50;;;;;;4927439;29;20039;-75
2021/06/20 02:42:49;;;;;;;1.00;0.38;;;15.50;95.30;;;;;;4925509;29;20032;-74
2021/06/20 02:45:20;;;;;;;2.78;0.50;;;15.40;95.80;;;;;;4927261;29;20034;-72
2021/06/20 02:47:48;;;;;;;4.18;1.60;;;15.30;96.20;;;;;;4924269;29;20486;-73
2021/06/20 02:50:16;;;;;;;1.02;0.32;;;15.20;97.00;;;;;;4922224;29;20059;-69
2021/06/20 02:52:45;;;;;;;0.93;0.20;;;15.10;96.90;;;;;;4925798;29;20118;-75
2021/06/20 02:55:13;;;;;;;1.25;0.25;;;15.00;97.70;;;;;;4914787;29;20028;-70
2021/06/20 02:57:42;;;;;;;3.67;0.35;;;15.10;97.10;;;;;;4922222;29;20027;-73
2021/06/20 03:00:10;;;;;;;1.40;0.40;;;15.20;97.50;;;;;;4927192;29;20952;-72
2021/06/20 03:02:38;;;;;;;3.30;0.50;;;15.40;97.30;;;;;;4922526;29;20047;-71
2021/06/20 03:05:06;;;;;;;6.05;2.35;;;15.50;97.50;;;;;;4924605;29;20019;-70
2021/06/20 03:07:34;;;;;;;3.85;0.80;;;15.50;97.10;;;;;;4924618;29;20044;-70
2021/06/20 03:10:03;;;;;;;2.13;0.47;;;15.50;96.00;;;;;;4924844;29;20152;-70
2021/06/20 03:12:31;;;;;;;5.15;0.47;;;15.60;96.40;;;;;;4924815;29;20059;-70
2021/06/20 03:14:58;;;;;;;2.05;0.80;;;15.50;95.80;;;;;;4925347;29;20028;-70
2021/06/20 03:17:26;;;;;;;3.60;0.60;;;15.50;96.10;;;;;;4924644;29;20019;-70
2021/06/20 03:19:53;;;;;;;4.00;1.05;;;15.40;97.10;;;;;;4921971;29;20023;-71
2021/06/20 03:22:20;;;;;;;3.10;1.02;;;15.20;97.70;;;;;;4920966;29;20862;-71
2021/06/20 03:24:50;;;;;;;4.00;0.90;;;15.10;98.00;;;;;;4926918;29;20023;-72
2021/06/20 03:27:20;;;;;;;3.17;0.65;;;15.10;98.40;;;;;;4925168;29;20063;-72
2021/06/20 03:29:48;;;;;;;3.50;0.50;;;15.00;99.40;;;;;;4926189;29;20096;-71
2021/06/20 03:32:18;;;;;;;3.38;1.15;;;15.10;99.40;;;;;;4922967;29;20542;-71
2021/06/20 03:34:46;;;;;;;2.22;0.70;;;15.10;99.70;;;;;;4925116;29;20039;-71
2021/06/20 03:37:14;;;;;;;2.35;1.10;;;15.20;99.30;;;;;;4922725;29;20051;-71
2021/06/20 03:39:42;;;;;;;2.88;1.10;;;15.30;98.80;;;;;;4927482;29;20028;-71
2021/06/20 03:42:10;;;;;;;1.80;0.85;;;15.50;98.10;;;;;;4922828;29;20028;-76
2021/06/20 03:44:37;;;;;;;1.65;0.63;;;15.50;98.30;;;;;;4922124;29;20035;-73
2021/06/20 03:47:05;;;;;;;3.95;0.77;;;15.60;97.60;;;;;;4925438;29;20074;-70
2021/06/20 03:49:32;;;;;;;3.00;0.35;;;15.60;97.50;;;;;;4922230;29;20040;-70
2021/06/20 03:52:00;;;;;;;1.77;0.20;;;15.70;97.30;;;;;;4923787;29;20034;-75
2021/06/20 03:54:28;;;;;;;2.65;0.60;;;15.80;97.20;;;;;;4923198;29;20042;-73
2021/06/20 03:56:55;;;;;;;1.45;0.38;;;15.70;97.10;;;;;;4923258;29;20091;-73
2021/06/20 03:59:24;;;;;;;1.20;0.40;;;15.70;97.60;;;;;;4925449;29;20071;-75
2021/06/20 04:01:54;;;;;;;1.33;0.40;;;15.80;97.90;;;;;;4918789;29;20047;-72
2021/06/20 04:04:22;;;;;;;1.15;0.30;;;15.80;97.40;;;;;;4923249;29;20046;-71
2021/06/20 04:06:50;;;;;;;0.75;0.22;;;15.80;97.00;;;;;;4927090;29;20030;-72
2021/06/20 04:09:18;;;;;;;3.35;0.73;;;15.70;97.00;;;;;;4926459;29;20071;-79
2021/06/20 04:11:47;;;;;;;1.17;0.30;;;15.50;97.60;;;;;;4920955;29;20550;-70
2021/06/20 04:14:15;;;;;;;3.95;1.02;;;15.30;98.20;;;;;;4929253;29;20020;-73
2021/06/20 04:16:43;;;;;;;1.45;0.68;;;15.20;99.20;;;;;;4932056;29;20487;-72
2021/06/20 04:19:10;;;;;;;1.02;0.40;;;15.10;99.60;;;;;;4923961;29;20036;-73
2021/06/20 04:21:38;;;;;;;1.95;0.60;;;15.10;99.90;;;;;;4929869;29;20038;-71
2021/06/20 04:24:05;;;;;;;1.38;0.85;;;15.00;99.90;;;;;;4928572;29;20027;-71
2021/06/20 04:26:33;;;;;;;2.53;0.38;;;15.00;99.80;;;;;;4925962;29;20039;-72
2021/06/20 04:29:00;;;;;;;0.55;0.20;;;15.10;99.90;;;;;;4926386;29;20031;-71
2021/06/20 04:31:28;;;;;;;4.38;1.00;;;15.10;99.90;;;;;;4925036;29;20028;-70
2021/06/20 04:33:55;;;;;;;2.85;1.42;;;15.00;99.90;;;;;;4927087;29;20082;-70
2021/06/20 04:36:22;;;;;;;4.97;0.73;;;15.00;99.90;;;;;;4923939;29;20052;-72
2021/06/20 04:38:50;;;;;;;2.95;0.40;;;15.10;99.90;;;;;;4913072;29;20450;-71
2021/06/20 04:41:19;;;;;;;1.40;0.47;;;15.10;99.90;;;;;;4934217;29;20016;-72
2021/06/20 04:46:33;;;;;;;0.40;0.20;;;15.10;99.90;;;;;;4928717;29;20020;-71
2021/06/20 04:49:11;;;;;;;1.92;0.88;;;15.10;99.90;;;;;;4933103;29;20032;-71
2021/06/20 04:51:40;;;;;;;3.20;0.60;;;15.00;99.90;;;;;;4934260;29;20035;-73
2021/06/20 04:54:10;;;;;;;1.25;0.63;;;15.10;99.90;;;;;;4928366;29;20087;-73
2021/06/20 04:56:38;;;;;;;2.28;1.30;;;15.00;99.90;;;;;;4925172;29;20031;-72
2021/06/20 04:59:07;;;;;;;5.88;0.88;;;15.00;99.90;;;;;;4930005;29;20031;-73
2021/06/20 05:01:35;;;;;;;1.08;0.40;;;14.90;99.90;;;;;;4928863;29;20040;-77
2021/06/20 05:04:03;;;;;;;0.82;0.50;;;14.70;99.90;;;;;;4929208;29;20114;-76
2021/06/20 05:06:30;;;;;;;1.77;0.40;;;14.60;99.90;;;;;;4929541;29;20036;-73
2021/06/20 05:08:58;;;;;;;4.00;0.75;;;14.70;99.90;;;;;;4929579;29;20557;-75
2021/06/20 05:11:25;;;;;;;1.38;0.68;;;14.60;99.90;;;;;;4929410;29;20043;-77
2021/06/20 05:13:53;;;;;;;1.92;0.90;;;14.60;99.90;;;;;;4931756;29;21023;-78
2021/06/20 05:16:20;;;;;;;4.80;2.53;;;14.50;99.90;;;;;;4931333;29;20143;-75
2021/06/20 05:18:47;;;;;;;7.18;1.92;;;14.40;99.90;;;;;;4930365;29;20030;-78
2021/06/20 05:21:15;;;;;;;2.95;0.85;;;14.30;99.90;;;;;;4935444;29;20042;-73
2021/06/20 05:23:42;;;;;;;13.88;4.40;;;14.20;99.90;;;;;;4934405;29;20028;-72
2021/06/20 05:26:10;;;;;;;5.50;3.58;;;14.10;99.90;;;;;;4907498;29;20034;-76
2021/06/20 05:28:37;;;;;;;10.50;4.20;;;13.90;99.90;;;;;;4928938;29;20118;-74
2021/06/20 05:31:05;;;;;;;8.30;2.55;;;13.90;99.90;;;;;;4926148;29;20063;-72
2021/06/20 05:33:32;;;;;;;9.75;4.72;;;13.90;99.90;;;;;;4927526;29;20116;-76
2021/06/20 05:36:02;;;;;;;8.35;3.65;;;13.90;99.90;;;;;;4930157;29;20091;-73
2021/06/20 05:38:30;;;;;;;3.83;2.10;;;13.90;99.90;;;;;;4928312;29;20032;-74
2021/06/20 05:40:59;;;;;;;4.47;2.60;;;14.00;99.90;;;;;;4931146;29;20067;-75
2021/06/20 05:43:27;;;;;;;6.05;3.15;;;13.90;99.90;;;;;;4929872;29;20526;-74
2021/06/20 05:45:55;;;;;;;2.92;1.25;;;13.90;99.90;;;;;;4931567;29;20114;-74
2021/06/20 05:48:22;;;;;;;2.85;0.98;;;13.80;99.90;;;;;;4927466;29;20303;-77
2021/06/20 05:50:50;;;;;;;6.82;0.95;;;13.80;99.90;;;;;;4933859;29;20670;-75
2021/06/20 05:53:17;;;;;;;2.35;0.98;;;13.70;99.90;;;;;;4932384;29;20034;-76
2021/06/20 05:55:44;;;;;;;7.45;2.40;;;13.70;99.90;;;;;;4909256;29;20036;-74
2021/06/20 05:58:12;;;;;;;6.07;1.33;;;13.80;99.90;;;;;;4929234;29;20052;-77
2021/06/20 06:00:40;;;;;;;3.85;0.70;;;13.80;99.90;;;;;;4927897;29;20184;-75
2021/06/20 06:03:08;;;;;;;1.48;0.80;;;13.70;99.90;;;;;;4927565;29;20367;-76
2021/06/20 06:05:35;;;;;;;2.47;0.60;;;13.70;99.90;;;;;;4935436;29;20131;-74
2021/06/20 06:08:03;;;;;;;2.05;0.65;;;13.80;99.90;;;;;;4928640;29;20024;-75
2021/06/20 06:10:31;;;;;;;7.38;6.47;;;13.70;99.90;;;;;;4927509;29;20083;-77
2021/06/20 06:12:59;;;;;;;8.77;6.45;;;13.60;99.90;;;;;;4928768;29;20457;-71
2021/06/20 06:15:31;;;;;;;6.25;3.92;;;13.50;99.90;;;;;;4928561;29;20031;-72
2021/06/20 06:17:59;;;;;;;6.05;1.30;;;13.50;99.90;;;;;;4926630;29;20024;-73
2021/06/20 06:20:27;;;;;;;2.38;1.90;;;13.60;99.90;;;;;;4925375;29;20027;-77
2021/06/20 06:22:58;;;;;;;2.15;1.88;;;13.50;99.90;;;;;;4926248;29;20043;-76
2021/06/20 06:25:26;;;;;;;2.20;1.33;;;13.50;99.90;;;;;;4927569;29;20025;-78
2021/06/20 06:27:53;;;;;;;4.95;1.70;;;13.40;99.90;;;;;;4932159;29;20330;-77
2021/06/20 06:30:22;;;;;;;3.72;1.10;;;13.50;99.90;;;;;;4930208;29;20048;-75
2021/06/20 06:32:51;;;;;;;2.53;0.60;;;13.40;99.90;;;;;;4925432;29;20023;-74
2021/06/20 06:35:18;;;;;;;1.40;0.55;;;13.30;99.90;;;;;;4933140;29;20036;-82
2021/06/20 06:37:46;;;;;;;5.40;2.63;;;13.40;99.90;;;;;;4927579;29;20032;-80
2021/06/20 06:40:14;;;;;;;4.38;1.67;;;13.40;99.90;;;;;;4928393;29;20047;-72
2021/06/20 06:42:42;;;;;;;2.10;0.80;;;13.30;99.90;;;;;;4926552;29;20043;-84
2021/06/20 06:45:10;;;;;;;2.08;0.93;;;13.30;99.90;;;;;;4930575;29;20036;-76
2021/06/20 06:47:38;;;;;;;2.28;0.85;;;13.30;99.90;;;;;;4931005;29;20035;-74
2021/06/20 06:50:07;;;;;;;4.55;1.85;;;13.30;99.90;;;;;;4926286;29;20039;-78
2021/06/20 06:52:36;;;;;;;29.35;17.63;;;13.30;99.90;;;;;;4928732;29;20653;-81
2021/06/20 06:55:05;;;;;;;28.63;19.45;;;13.30;99.90;;;;;;4926919;29;20055;-74
2021/06/20 06:57:34;;;;;;;12.70;5.95;;;13.30;99.90;;;;;;4934117;29;20027;-82
2021/06/20 07:00:01;;;;;;;6.93;6.22;;;13.30;99.90;;;;;;4927198;29;20059;-80
2021/06/20 07:02:29;;;;;;;8.63;7.78;;;13.30;99.90;;;;;;4928122;29;20102;-77
2021/06/20 07:04:57;;;;;;;9.07;8.20;;;13.20;99.90;;;;;;4926881;29;20038;-76
2021/06/20 07:07:25;;;;;;;4.18;2.97;;;13.20;99.90;;;;;;4924641;29;20031;-76
2021/06/20 07:09:58;;;;;;;8.50;7.60;;;13.20;99.90;;;;;;4928970;29;20489;-78
2021/06/20 07:12:27;;;;;;;19.15;14.13;;;13.20;99.90;;;;;;4926159;29;20027;-79
2021/06/20 07:14:55;;;;;;;14.88;13.27;;;13.20;99.90;;;;;;4931472;29;20035;-75
2021/06/20 07:17:22;;;;;;;9.40;8.45;;;13.20;99.90;;;;;;4927185;29;20483;-78
2021/06/20 07:19:50;;;;;;;31.42;22.70;;;13.20;99.90;;;;;;4928524;29;20098;-75
2021/06/20 07:22:17;;;;;;;27.15;21.33;;;13.10;99.90;;;;;;4924111;29;20368;-74
2021/06/20 07:24:45;;;;;;;32.75;22.30;;;13.10;99.90;;;;;;4922161;29;20046;-70
2021/06/20 07:27:13;;;;;;;17.75;14.52;;;13.10;99.90;;;;;;4925187;29;20027;-70
2021/06/20 07:29:46;;;;;;;13.18;11.80;;;13.10;99.90;;;;;;4930964;29;20044;-76
2021/06/20 07:32:13;;;;;;;5.57;5.07;;;13.10;99.90;;;;;;4928385;29;20475;-72
2021/06/20 07:34:41;;;;;;;2.45;1.80;;;13.10;99.90;;;;;;4926432;29;21171;-74
2021/06/20 07:37:08;;;;;;;1.23;0.57;;;13.10;99.90;;;;;;4924166;29;20859;-74
2021/06/20 07:39:36;;;;;;;0.90;0.40;;;13.10;99.90;;;;;;4924189;29;20097;-73
2021/06/20 07:42:04;;;;;;;2.63;0.60;;;13.10;99.90;;;;;;4927186;29;20506;-77
2021/06/20 07:44:31;;;;;;;1.88;0.50;;;13.10;99.90;;;;;;4928532;29;20024;-78
2021/06/20 07:46:58;;;;;;;3.45;1.05;;;13.00;99.90;;;;;;4924186;29;20032;-77
2021/06/20 07:49:26;;;;;;;4.72;1.05;;;13.00;99.90;;;;;;4929792;29;20036;-80
2021/06/20 07:51:53;;;;;;;2.47;1.13;;;12.90;99.90;;;;;;4925433;29;20024;-79
2021/06/20 07:54:20;;;;;;;1.95;0.70;;;12.90;99.90;;;;;;4927696;29;20394;-74
2021/06/20 07:56:48;;;;;;;4.28;1.10;;;12.90;99.90;;;;;;4923340;29;20122;-74
2021/06/20 07:59:15;;;;;;;3.35;0.90;;;12.90;99.90;;;;;;4920971;29;20043;-77
2021/06/20 08:01:43;;;;;;;3.38;1.02;;;12.90;99.90;;;;;;4923461;29;20044;-75
2021/06/20 08:04:10;;;;;;;2.45;0.98;;;12.90;99.90;;;;;;4926686;29;20042;-79
2021/06/20 08:06:37;;;;;;;5.15;0.82;;;12.90;99.90;;;;;;4925292;29;20032;-78
2021/06/20 08:09:05;;;;;;;4.32;0.73;;;12.90;99.90;;;;;;4926761;29;20055;-77
2021/06/20 08:11:34;;;;;;;2.60;1.23;;;12.80;99.90;;;;;;4925156;29;20055;-73
2021/06/20 08:14:03;;;;;;;3.03;0.60;;;12.80;99.90;;;;;;4924690;29;20027;-78
2021/06/20 08:16:31;;;;;;;3.70;0.68;;;12.80;99.90;;;;;;4923551;29;20035;-77
2021/06/20 08:18:59;;;;;;;1.63;0.75;;;12.80;99.90;;;;;;4930918;29;20099;-79
2021/06/20 08:21:26;;;;;;;5.10;0.82;;;12.80;99.90;;;;;;4927907;29;20470;-79
2021/06/20 08:23:54;;;;;;;1.15;0.60;;;12.80;99.90;;;;;;4928519;29;20023;-77
2021/06/20 08:26:21;;;;;;;2.70;0.60;;;12.80;99.90;;;;;;4925499;29;20517;-78
2021/06/20 08:28:48;;;;;;;1.73;0.70;;;12.70;99.90;;;;;;4925899;29;22474;-76
2021/06/20 08:31:16;;;;;;;2.25;0.82;;;12.70;99.90;;;;;;4926453;29;20495;-77
2021/06/20 08:33:44;;;;;;;2.10;0.85;;;12.70;99.90;;;;;;4924118;29;20038;-78
2021/06/20 08:36:12;;;;;;;5.47;2.15;;;12.70;99.90;;;;;;4924547;29;20083;-75
2021/06/20 08:38:39;;;;;;;3.00;1.02;;;12.80;99.90;;;;;;4905691;29;20019;-80
2021/06/20 08:41:07;;;;;;;2.97;0.50;;;12.70;99.90;;;;;;4928823;29;20420;-78
2021/06/20 08:43:34;;;;;;;1.42;0.50;;;12.70;99.90;;;;;;4903270;29;20043;-80
2021/06/20 08:46:02;;;;;;;1.90;0.50;;;12.70;99.90;;;;;;4925423;29;20418;-76
2021/06/20 08:48:30;;;;;;;2.42;0.70;;;12.70;99.90;;;;;;4922759;29;20040;-81
2021/06/20 08:50:57;;;;;;;2.17;0.30;;;12.70;99.90;;;;;;4923835;29;20546;-76
2021/06/20 08:53:25;;;;;;;2.05;0.35;;;12.60;99.90;;;;;;4928491;29;20483;-71
2021/06/20 08:55:53;;;;;;;1.55;0.50;;;12.60;99.90;;;;;;4912417;29;20383;-72
2021/06/20 08:58:33;;;;;;;1.92;0.57;;;12.60;99.90;;;;;;4922075;29;20031;-73
2021/06/20 09:01:03;;;;;;;0.75;0.30;;;12.60;99.90;;;;;;4922702;29;21646;-74
2021/06/20 09:03:44;;;;;;;2.85;1.58;;;12.50;99.90;;;;;;4925258;29;20474;-75
2021/06/20 09:06:31;;;;;;;1.05;0.82;;;12.40;99.90;;;;;;4923705;29;20553;-74
2021/06/20 09:09:01;;;;;;;0.55;0.43;;;12.40;99.90;;;;;;4923812;29;20052;-72
2021/06/20 09:11:35;;;;;;;1.10;0.60;;;12.40;99.90;;;;;;4923934;29;20038;-77
2021/06/20 09:14:15;;;;;;;3.45;0.65;;;12.30;99.90;;;;;;4922889;29;20103;-74
2021/06/20 09:16:54;;;;;;;3.72;0.80;;;12.20;99.90;;;;;;4924559;29;20122;-76
2021/06/20 09:19:35;;;;;;;1.92;0.60;;;12.10;99.90;;;;;;4922944;29;20305;-78
2021/06/20 09:22:08;;;;;;;1.23;0.70;;;12.00;99.90;;;;;;4924089;29;20032;-75
2021/06/20 09:24:39;;;;;;;1.60;0.57;;;12.00;99.90;;;;;;4925258;29;20485;-76
2021/06/20 09:27:07;;;;;;;5.85;0.65;;;11.90;99.90;;;;;;4921396;29;20039;-73
2021/06/20 09:29:37;;;;;;;1.48;0.60;;;11.90;99.90;;;;;;4927166;29;20403;-75
2021/06/20 09:32:09;;;;;;;2.13;0.98;;;11.90;99.90;;;;;;4911911;29;20108;-72
2021/06/20 09:34:51;;;;;;;1.80;0.60;;;11.80;99.90;;;;;;4926297;29;20031;-74
2021/06/20 09:37:21;;;;;;;1.02;0.50;;;11.70;99.90;;;;;;4930289;29;20203;-75
2021/06/20 09:39:48;;;;;;;3.42;0.60;;;11.70;99.90;;;;;;4933616;29;20027;-78
2021/06/20 09:42:17;;;;;;;1.08;0.52;;;11.70;99.90;;;;;;4932429;29;20036;-75
2021/06/20 09:44:49;;;;;;;2.10;0.70;;;11.70;99.90;;;;;;4931538;29;20031;-73
2021/06/20 09:47:19;;;;;;;5.93;0.95;;;11.60;99.90;;;;;;4927075;29;20024;-73
2021/06/20 09:49:50;;;;;;;4.15;0.80;;;11.60;99.90;;;;;;4929308;29;20040;-71
2021/06/20 09:52:34;;;;;;;0.57;0.50;;;11.60;99.90;;;;;;4926212;29;20066;-76
2021/06/20 09:55:21;;;;;;;2.55;0.85;;;11.50;99.90;;;;;;4926081;29;20118;-75
2021/06/20 09:57:48;;;;;;;;;;;11.50;99.90;;;;;;4926466;29;20027;-79
2021/06/20 10:00:16;;;;;;;3.03;0.90;;;11.50;99.90;;;;;;4927245;29;19914;-78
2021/06/20 10:02:44;;;;;;;3.00;1.23;;;11.40;99.90;;;;;;4929017;29;20082;-77
2021/06/20 10:05:13;;;;;;;5.10;1.33;;;11.40;99.90;;;;;;4930822;29;20415;-77
2021/06/20 10:07:40;;;;;;;2.67;1.80;;;11.40;99.90;;;;;;4924016;29;20016;-72
2021/06/20 10:10:09;;;;;;;5.45;4.47;;;11.40;99.90;;;;;;4924886;29;20735;-72
2021/06/20 10:12:37;;;;;;;11.75;4.63;;;11.40;99.90;;;;;;4922366;28;20109;-75
2021/06/20 10:15:11;;;;;;;11.90;9.25;;;11.30;99.90;;;;;;4922837;29;20040;-76
2021/06/20 10:17:44;;;;;;;4.80;2.88;;;11.40;99.90;;;;;;4926225;29;20177;-74
2021/06/20 10:20:14;;;;;;;5.18;1.08;;;11.30;99.90;;;;;;4927103;29;20078;-74
2021/06/20 10:22:51;;;;;;;2.00;0.80;;;11.30;99.90;;;;;;4923535;29;20036;-79
2021/06/20 10:25:25;;;;;;;1.45;0.77;;;11.20;99.90;;;;;;4927873;29;20042;-75
2021/06/20 10:28:30;;;;;;;3.33;0.75;;;11.20;99.90;;;;;;4923859;29;20039;-76
2021/06/20 10:31:09;;;;;;;2.58;0.50;;;11.20;99.90;;;;;;4904651;29;20406;-75
2021/06/20 10:33:41;;;;;;;5.07;1.13;;;11.20;99.90;;;;;;4923471;29;20022;-73
2021/06/20 10:36:10;;;;;;;5.63;1.65;;;11.10;99.90;;;;;;4923041;29;20395;-73
2021/06/20 10:38:45;;;;;;;1.52;0.75;;;11.00;99.90;;;;;;4921889;29;20055;-79
2021/06/20 10:41:24;;;;;;;1.07;0.60;;;11.10;99.90;;;;;;4922459;29;20085;-76
2021/06/20 10:43:59;;;;;;;4.22;1.13;;;11.00;99.90;;;;;;4927109;29;20038;-75
2021/06/20 10:46:28;;;;;;;3.78;1.70;;;11.00;99.90;;;;;;4924971;29;20026;-77
2021/06/20 10:48:55;;;;;;;3.03;0.80;;;11.00;99.90;;;;;;4922245;29;20399;-75
2021/06/20 10:51:24;;;;;;;2.45;1.08;;;11.00;99.90;;;;;;4924959;29;20036;-76
2021/06/20 10:53:52;;;;;;;1.92;1.10;;;10.90;99.90;;;;;;4924331;29;20032;-75
2021/06/20 10:56:24;;;;;;;2.90;0.63;;;10.80;99.90;;;;;;4921839;29;20066;-74
2021/06/20 10:58:54;;;;;;;0.85;0.70;;;10.80;99.90;;;;;;4921160;29;20232;-72
2021/06/20 11:01:24;;;;;;;1.98;0.60;;;10.80;99.90;;;;;;4925747;29;20044;-73
2021/06/20 11:03:54;;;;;;;3.15;1.60;;;10.80;99.90;;;;;;4924356;29;20035;-79
2021/06/20 11:06:24;;;;;;;2.50;0.60;;;10.80;99.90;;;;;;4923135;29;20028;-74
2021/06/20 11:08:59;;;;;;;0.75;0.45;;;10.80;99.90;;;;;;4905370;29;20509;-73
2021/06/20 11:11:32;;;;;;;1.80;0.60;;;10.90;99.90;;;;;;4919872;29;20047;-73
2021/06/20 11:13:59;;;;;;;2.63;0.55;;;10.90;99.90;;;;;;4924225;29;20039;-72
2021/06/20 11:16:41;;;;;;;4.55;1.08;;;10.90;99.90;;;;;;4923592;29;20136;-73
2021/06/20 11:19:20;;;;;;;2.83;0.77;;;11.00;99.90;;;;;;4923217;29;20032;-73
2021/06/20 11:21:58;;;;;;;2.70;0.47;;;11.00;99.90;;;;;;4925482;29;20028;-72
2021/06/20 11:24:39;;;;;;;2.92;0.73;;;11.00;99.90;;;;;;4925651;29;20110;-74
2021/06/20 11:27:18;;;;;;;3.53;0.60;;;11.10;99.90;;;;;;4925830;29;20027;-71
2021/06/20 11:29:56;;;;;;;0.70;0.40;;;11.10;99.90;;;;;;4923739;29;20150;-71
2021/06/20 11:32:26;;;;;;;0.95;0.60;;;11.10;99.90;;;;;;4919620;29;20032;-75
2021/06/20 11:35:03;;;;;;;0.60;0.25;;;11.10;99.90;;;;;;4918935;29;20031;-73
2021/06/20 11:37:39;;;;;;;1.15;0.63;;;11.10;99.90;;;;;;4927815;29;20035;-70
2021/06/20 11:40:07;;;;;;;;;;;11.10;99.90;;;;;;4925013;29;20027;-72
2021/06/20 11:42:42;;;;;;;1.88;0.40;;;11.20;99.90;;;;;;4928386;29;19917;-72
2021/06/20 11:45:12;;;;;;;3.47;0.45;;;11.20;99.90;;;;;;4926624;29;20271;-71
2021/06/20 11:47:45;;;;;;;1.40;0.40;;;11.30;99.90;;;;;;4920094;29;20031;-73
2021/06/20 11:50:25;;;;;;;2.10;0.40;;;11.40;99.90;;;;;;4923120;29;20054;-73
2021/06/20 11:53:07;;;;;;;1.25;0.43;;;11.40;99.90;;;;;;4922073;29;20027;-73
2021/06/20 11:55:35;;;;;;;1.00;0.50;;;11.50;99.90;;;;;;4920967;29;20031;-73
2021/06/20 11:58:05;;;;;;;2.08;0.40;;;11.60;99.90;;;;;;4922842;29;20514;-71
2021/06/20 12:00:34;;;;;;;1.20;0.30;;;11.60;99.90;;;;;;4923643;29;20043;-73
2021/06/20 12:03:05;;;;;;;0.80;0.22;;;11.70;99.90;;;;;;4925346;29;20070;-72
2021/06/20 12:05:35;;;;;;;1.83;0.20;;;11.70;99.90;;;;;;4923453;29;20055;-74
2021/06/20 12:08:05;;;;;;;0.43;0.25;;;11.80;99.90;;;;;;4926542;29;20309;-72
2021/06/20 12:10:41;;;;;;;1.50;0.20;;;11.90;99.90;;;;;;4904129;29;20122;-72
2021/06/20 12:13:09;;;;;;;1.80;0.60;;;11.90;99.90;;;;;;4932008;29;20027;-73
2021/06/20 12:15:39;;;;;;;1.63;0.32;;;11.80;99.90;;;;;;4928116;29;20355;-74
2021/06/20 12:18:08;;;;;;;1.13;0.22;;;11.80;99.90;;;;;;4926124;29;20482;-70
2021/06/20 12:20:41;;;;;;;1.15;0.30;;;11.80;99.90;;;;;;4930497;29;20535;-72
2021/06/20 12:23:21;;;;;;;2.10;0.57;;;11.70;99.90;;;;;;4928541;29;20046;-71
2021/06/20 12:25:50;;;;;;;1.80;0.35;;;11.70;99.90;;;;;;4926633;29;20091;-71
2021/06/20 12:28:20;;;;;;;1.63;0.40;;;11.70;99.90;;;;;;4927894;29;20118;-72
2021/06/20 12:30:50;;;;;;;0.85;0.43;;;11.70;99.90;;;;;;4926844;29;20483;-72
2021/06/20 12:33:20;;;;;;;2.17;0.43;;;11.60;99.90;;;;;;4929393;29;20110;-73
2021/06/20 12:36:01;;;;;;;0.70;0.20;;;11.60;99.90;;;;;;4920247;29;20388;-72
2021/06/20 12:38:31;;;;;;;2.25;0.20;;;11.50;99.90;;;;;;4923229;29;20644;-69
2021/06/20 12:40:59;;;;;;;0.35;0.20;;;11.40;99.90;;;;;;4929168;29;20078;-70
2021/06/20 12:43:27;;;;;;;2.15;0.38;;;11.40;99.90;;;;;;4926934;29;20028;-70
2021/06/20 12:46:09;;;;;;;5.70;0.30;;;11.30;99.90;;;;;;4924342;29;20502;-74
2021/06/20 12:48:41;;;;;;;0.77;0.20;;;11.30;99.90;;;;;;4925477;29;20047;-70
2021/06/20 12:51:11;;;;;;;1.60;0.90;;;11.30;99.90;;;;;;4931062;29;20090;-73
2021/06/20 12:53:44;;;;;;;1.80;0.50;;;11.20;99.90;;;;;;4928433;29;20031;-74
2021/06/20 12:56:26;;;;;;;5.57;0.60;;;11.30;99.90;;;;;;4932194;29;20094;-71
2021/06/20 12:59:11;;;;;;;3.33;0.47;;;11.30;99.90;;;;;;4926532;29;20039;-71
2021/06/20 13:01:50;;;;;;;6.28;1.02;;;11.20;99.90;;;;;;4928197;29;20569;-70